createdAt,value
2022-12-31T00:00:39.150Z,3.72
2022-12-31T00:03:08.475Z,3.38
2022-12-31T00:05:37.245Z,3.07
2022-12-31T00:08:04.870Z,2.97
2022-12-31T00:10:34.252Z,2.17
2022-12-31T00:13:01.391Z,2.37
2022-12-31T00:15:28.678Z,1.92
2022-12-31T00:17:55.683Z,2.85
2022-12-31T00:20:23.152Z,1.58
2022-12-31T00:22:50.781Z,1.77
2022-12-31T00:25:18.001Z,1.55
2022-12-31T00:27:44.987Z,1.33
2022-12-31T00:30:13.128Z,1.80
2022-12-31T00:32:40.334Z,3.05
2022-12-31T00:35:08.759Z,1.40
2022-12-31T00:37:35.754Z,3.03
2022-12-31T00:40:02.916Z,3.70
2022-12-31T00:42:29.928Z,2.47
2022-12-31T00:44:56.862Z,1.65
2022-12-31T00:47:24.682Z,1.30
2022-12-31T00:49:51.698Z,1.70
2022-12-31T00:52:18.901Z,1.67
2022-12-31T00:54:45.869Z,2.13
2022-12-31T00:57:13.122Z,2.30
2022-12-31T00:59:40.077Z,3.47
2022-12-31T01:02:07.293Z,1.30
2022-12-31T01:04:34.477Z,2.55
2022-12-31T01:07:01.447Z,1.48
2022-12-31T01:09:28.460Z,2.05
2022-12-31T01:11:55.471Z,1.15
2022-12-31T01:14:22.907Z,1.15
2022-12-31T01:16:53.110Z,1.42
2022-12-31T01:21:51.492Z,1.08
2022-12-31T01:24:19.359Z,1.85
2022-12-31T01:26:47.117Z,1.65
2022-12-31T01:29:14.890Z,0.93
2022-12-31T01:31:42.011Z,2.53
2022-12-31T01:34:09.726Z,2.45
2022-12-31T01:36:38.920Z,1.55
2022-12-31T01:39:08.441Z,1.48
2022-12-31T01:41:42.692Z,2.53
2022-12-31T01:44:12.687Z,1.30
2022-12-31T01:46:46.090Z,1.33
2022-12-31T01:49:32.470Z,1.42
2022-12-31T01:52:09.048Z,3.20
2022-12-31T01:54:42.804Z,2.85
2022-12-31T01:57:11.177Z,1.88
2022-12-31T01:59:38.390Z,1.40
2022-12-31T02:02:06.434Z,1.75
2022-12-31T02:04:34.000Z,1.75
2022-12-31T02:07:09.466Z,1.52
2022-12-31T02:09:40.003Z,2.30
2022-12-31T02:12:09.481Z,2.00
2022-12-31T02:14:44.866Z,3.97
2022-12-31T02:17:38.676Z,1.23
2022-12-31T02:20:55.861Z,1.30
2022-12-31T02:24:04.797Z,1.92
2022-12-31T02:27:02.005Z,2.25
2022-12-31T02:30:03.972Z,1.92
2022-12-31T02:33:15.172Z,2.15
2022-12-31T02:36:01.205Z,1.52
2022-12-31T02:38:33.485Z,1.95
2022-12-31T02:41:00.730Z,2.17
2022-12-31T02:43:28.324Z,3.05
2022-12-31T02:46:28.122Z,2.25
2022-12-31T02:49:16.174Z,2.42
2022-12-31T02:52:26.949Z,1.30
2022-12-31T02:55:09.015Z,2.30
2022-12-31T02:57:47.584Z,1.30
2022-12-31T03:00:36.078Z,1.58
2022-12-31T03:03:06.560Z,1.30
2022-12-31T03:05:40.252Z,3.75
2022-12-31T03:08:07.811Z,1.85
2022-12-31T03:10:35.314Z,1.40
2022-12-31T03:13:03.177Z,3.10
2022-12-31T03:15:33.356Z,1.83
2022-12-31T03:18:09.179Z,1.98
2022-12-31T03:21:00.237Z,2.35
2022-12-31T03:23:30.568Z,1.30
2022-12-31T03:25:59.619Z,2.75
2022-12-31T03:28:30.220Z,2.60
2022-12-31T03:31:01.055Z,1.35
2022-12-31T03:33:36.943Z,2.28
2022-12-31T03:36:11.859Z,1.98
2022-12-31T03:38:39.304Z,1.30
2022-12-31T03:41:06.621Z,1.00
2022-12-31T03:43:33.901Z,2.40
2022-12-31T03:46:01.513Z,2.63
2022-12-31T03:48:29.236Z,5.55
2022-12-31T03:50:56.227Z,1.23
2022-12-31T03:53:23.515Z,1.75
2022-12-31T03:55:54.448Z,2.88
2022-12-31T03:58:22.678Z,4.53
2022-12-31T04:00:50.154Z,5.28
2022-12-31T04:03:17.275Z,3.75
2022-12-31T04:05:44.304Z,2.70
2022-12-31T04:08:11.274Z,1.92
2022-12-31T04:10:38.456Z,2.10
2022-12-31T04:13:05.422Z,2.17
2022-12-31T04:15:32.638Z,2.78
2022-12-31T04:17:59.788Z,1.63
2022-12-31T04:20:26.738Z,1.63
2022-12-31T04:22:53.667Z,3.55
2022-12-31T04:25:20.784Z,2.88
2022-12-31T04:27:47.943Z,2.28
2022-12-31T04:30:15.348Z,2.65
2022-12-31T04:32:43.817Z,1.30
2022-12-31T04:35:12.337Z,3.25
2022-12-31T04:37:39.824Z,1.23
2022-12-31T04:40:09.004Z,2.15
2022-12-31T04:42:36.756Z,1.25
2022-12-31T04:45:04.770Z,1.30
2022-12-31T04:47:31.982Z,1.40
2022-12-31T04:49:59.157Z,2.30
2022-12-31T04:52:26.184Z,1.98
2022-12-31T04:54:53.219Z,2.70
2022-12-31T04:57:20.662Z,1.42
2022-12-31T04:59:48.017Z,0.85
2022-12-31T05:02:16.398Z,1.30
2022-12-31T05:04:44.322Z,1.52
2022-12-31T05:07:11.249Z,1.13
2022-12-31T05:09:38.343Z,2.05
2022-12-31T05:12:05.875Z,2.88
2022-12-31T05:14:32.821Z,1.10
2022-12-31T05:17:01.115Z,3.00
2022-12-31T05:19:28.213Z,1.00
2022-12-31T05:22:13.645Z,4.57
2022-12-31T05:24:40.746Z,1.17
2022-12-31T05:27:07.777Z,2.47
2022-12-31T05:29:34.824Z,2.85
2022-12-31T05:32:02.109Z,2.25
2022-12-31T05:34:29.367Z,1.08
2022-12-31T05:36:56.302Z,1.10
2022-12-31T05:39:23.275Z,0.85
2022-12-31T05:41:51.808Z,1.00
2022-12-31T05:44:19.001Z,1.27
2022-12-31T05:46:47.454Z,1.10
2022-12-31T05:49:14.482Z,1.15
2022-12-31T05:51:41.472Z,1.30
2022-12-31T05:54:08.603Z,5.45
2022-12-31T05:56:36.911Z,2.05
2022-12-31T05:59:04.018Z,1.70
2022-12-31T06:01:31.329Z,1.00
2022-12-31T06:03:58.995Z,0.90
2022-12-31T06:06:28.887Z,3.22
2022-12-31T06:08:56.031Z,1.00
2022-12-31T06:11:23.090Z,0.80
2022-12-31T06:13:50.044Z,0.85
2022-12-31T06:16:17.211Z,1.17
2022-12-31T06:18:44.437Z,1.92
2022-12-31T06:21:11.848Z,0.93
2022-12-31T06:23:40.979Z,2.00
2022-12-31T06:26:08.971Z,1.02
2022-12-31T06:28:36.352Z,1.48
2022-12-31T06:31:06.570Z,2.47
2022-12-31T06:36:05.229Z,1.50
2022-12-31T06:38:34.315Z,1.00
2022-12-31T06:41:06.465Z,1.42
2022-12-31T06:43:35.346Z,3.67
2022-12-31T06:46:03.651Z,2.75
2022-12-31T06:48:31.210Z,1.75
2022-12-31T06:51:10.637Z,1.30
2022-12-31T06:53:41.317Z,2.25
2022-12-31T06:56:16.797Z,1.98
2022-12-31T06:58:45.901Z,1.65
2022-12-31T07:01:49.297Z,1.27
2022-12-31T07:05:02.745Z,1.98
2022-12-31T07:08:09.114Z,1.42
2022-12-31T07:10:45.584Z,1.38
2022-12-31T07:13:57.595Z,3.28
2022-12-31T07:17:00.380Z,2.97
2022-12-31T07:19:59.537Z,1.40
2022-12-31T07:22:27.022Z,4.57
2022-12-31T07:24:54.477Z,3.78
2022-12-31T07:27:49.383Z,1.25
2022-12-31T07:30:35.342Z,2.55
2022-12-31T07:33:17.320Z,2.38
2022-12-31T07:36:13.130Z,2.45
2022-12-31T07:39:15.031Z,2.95
2022-12-31T07:42:05.161Z,1.60
2022-12-31T07:44:54.196Z,3.13
2022-12-31T07:47:29.103Z,31.48
2022-12-31T07:49:57.653Z,2.95
2022-12-31T07:52:26.207Z,2.70
2022-12-31T07:54:53.365Z,2.22
2022-12-31T07:57:23.917Z,4.65
2022-12-31T08:00:15.121Z,1.58
2022-12-31T08:03:15.053Z,3.78
2022-12-31T08:06:22.239Z,5.20
2022-12-31T08:09:12.843Z,2.08
2022-12-31T08:11:55.364Z,3.15
2022-12-31T08:14:23.597Z,2.67
2022-12-31T08:16:51.180Z,2.22
2022-12-31T08:19:31.807Z,1.77
2022-12-31T08:22:24.911Z,1.52
2022-12-31T08:25:30.741Z,2.25
2022-12-31T08:28:21.331Z,1.73
2022-12-31T08:31:01.982Z,1.30
2022-12-31T08:34:06.129Z,3.95
2022-12-31T08:37:15.304Z,1.65
2022-12-31T08:40:21.550Z,1.52
2022-12-31T08:43:15.714Z,1.40
2022-12-31T08:46:05.142Z,2.35
2022-12-31T08:48:43.303Z,2.75
2022-12-31T08:51:19.815Z,1.42
2022-12-31T08:53:48.308Z,1.40
2022-12-31T08:56:48.796Z,1.58
2022-12-31T08:59:48.558Z,1.73
2022-12-31T09:02:53.176Z,1.50
2022-12-31T09:05:28.549Z,2.80
2022-12-31T09:08:12.093Z,2.20
2022-12-31T09:10:42.806Z,1.65
2022-12-31T09:13:47.518Z,2.75
2022-12-31T09:16:35.341Z,1.33
2022-12-31T09:19:02.341Z,4.20
2022-12-31T09:21:29.651Z,10.90
2022-12-31T09:23:57.078Z,3.80
2022-12-31T09:27:09.451Z,3.15
2022-12-31T09:29:51.525Z,2.92
2022-12-31T09:33:01.335Z,2.53
2022-12-31T09:35:58.573Z,1.55
2022-12-31T09:38:52.570Z,2.70
2022-12-31T09:42:10.840Z,2.10
2022-12-31T09:45:06.861Z,2.30
2022-12-31T09:47:48.884Z,1.60
2022-12-31T09:50:17.978Z,3.63
2022-12-31T09:53:16.226Z,1.50
2022-12-31T09:55:50.711Z,1.50
2022-12-31T09:59:00.028Z,3.22
2022-12-31T10:02:02.986Z,1.35
2022-12-31T10:04:51.579Z,3.35
2022-12-31T10:07:53.561Z,2.58
2022-12-31T10:10:52.413Z,2.72
2022-12-31T10:13:34.540Z,2.40
2022-12-31T10:16:25.286Z,2.40
2022-12-31T10:19:46.959Z,1.33
2022-12-31T10:22:32.014Z,2.42
2022-12-31T10:25:37.769Z,1.70
2022-12-31T10:28:20.232Z,1.45
2022-12-31T10:31:16.922Z,1.20
2022-12-31T10:34:07.057Z,1.35
2022-12-31T10:37:14.163Z,3.10
2022-12-31T10:40:09.016Z,1.27
2022-12-31T10:43:15.958Z,3.03
2022-12-31T10:46:04.541Z,3.85
2022-12-31T10:49:09.715Z,2.20
2022-12-31T10:52:08.523Z,2.15
2022-12-31T10:55:24.246Z,2.63
2022-12-31T10:58:26.472Z,2.28
2022-12-31T11:01:33.937Z,2.88
2022-12-31T11:04:25.361Z,2.22
2022-12-31T11:07:30.987Z,1.70
2022-12-31T11:10:39.353Z,3.00
2022-12-31T11:13:54.189Z,4.55
2022-12-31T11:16:29.898Z,3.45
2022-12-31T11:19:27.584Z,5.80
2022-12-31T11:22:41.970Z,4.30
2022-12-31T11:25:36.012Z,10.30
2022-12-31T11:28:41.161Z,2.95
2022-12-31T11:31:53.066Z,4.65
2022-12-31T11:34:38.264Z,3.10
2022-12-31T11:37:41.498Z,3.85
2022-12-31T11:40:44.575Z,5.15
2022-12-31T11:43:34.765Z,2.95
2022-12-31T11:49:21.418Z,2.40
2022-12-31T11:52:24.817Z,1.63
2022-12-31T11:55:12.704Z,1.73
2022-12-31T11:57:43.650Z,5.88
2022-12-31T12:00:26.577Z,1.98
2022-12-31T12:03:04.527Z,1.58
2022-12-31T12:05:33.899Z,2.13
2022-12-31T12:08:03.162Z,2.83
2022-12-31T12:10:38.121Z,2.43
2022-12-31T12:13:25.093Z,7.13
2022-12-31T12:16:00.303Z,4.38
2022-12-31T12:18:40.970Z,3.47
2022-12-31T12:21:27.247Z,1.75
2022-12-31T12:24:01.293Z,3.33
2022-12-31T12:26:42.357Z,5.65
2022-12-31T12:29:20.646Z,1.42
2022-12-31T12:32:03.366Z,3.03
2022-12-31T12:34:39.454Z,1.70
2022-12-31T12:37:37.155Z,4.22
2022-12-31T12:40:19.816Z,1.92
2022-12-31T12:42:53.321Z,2.10
2022-12-31T12:45:36.990Z,1.88
2022-12-31T12:48:17.525Z,2.83
2022-12-31T12:53:43.091Z,2.78
2022-12-31T12:56:30.746Z,1.23
2022-12-31T12:59:35.391Z,1.23
2022-12-31T13:02:22.944Z,1.02
2022-12-31T13:05:28.204Z,1.48
2022-12-31T13:08:10.808Z,1.30
2022-12-31T13:10:49.517Z,2.08
2022-12-31T13:13:47.182Z,2.50
2022-12-31T13:16:35.839Z,2.35
2022-12-31T13:19:46.127Z,1.92
2022-12-31T13:25:32.970Z,2.97
2022-12-31T13:28:11.089Z,0.82
2022-12-31T13:30:50.738Z,1.75
2022-12-31T13:33:25.516Z,1.15
2022-12-31T13:36:19.130Z,2.08
2022-12-31T13:38:53.471Z,4.88
2022-12-31T13:42:09.619Z,1.10
2022-12-31T13:45:03.905Z,9.80
2022-12-31T13:47:49.943Z,1.70
2022-12-31T13:50:28.770Z,2.28
2022-12-31T13:53:26.969Z,1.50
2022-12-31T13:56:02.096Z,2.22
2022-12-31T13:58:50.493Z,2.65
2022-12-31T14:01:34.355Z,2.85
2022-12-31T14:04:47.149Z,1.58
2022-12-31T14:07:22.464Z,3.72
2022-12-31T14:09:50.078Z,4.07
2022-12-31T14:12:32.417Z,1.58
2022-12-31T14:15:23.450Z,3.30
2022-12-31T14:18:13.830Z,2.13
2022-12-31T14:20:49.464Z,2.75
2022-12-31T14:24:11.753Z,2.08
2022-12-31T14:26:50.774Z,2.88
2022-12-31T14:29:37.085Z,1.90
2022-12-31T14:32:17.015Z,2.85
2022-12-31T14:35:12.878Z,2.05
2022-12-31T14:38:12.533Z,1.48
2022-12-31T14:40:51.243Z,3.38
2022-12-31T14:43:46.453Z,5.50
2022-12-31T14:47:09.634Z,2.13
2022-12-31T14:50:04.885Z,1.42
2022-12-31T14:52:35.721Z,2.03
2022-12-31T14:55:20.580Z,1.42
2022-12-31T15:00:51.795Z,1.40
2022-12-31T15:03:18.877Z,2.17
2022-12-31T15:06:02.266Z,2.22
2022-12-31T15:09:08.536Z,4.88
2022-12-31T15:12:40.615Z,4.20
2022-12-31T15:15:41.462Z,5.63
2022-12-31T15:18:30.395Z,4.25
2022-12-31T15:21:46.351Z,3.78
2022-12-31T15:24:27.007Z,3.80
2022-12-31T15:27:04.523Z,8.95
2022-12-31T15:29:44.798Z,4.90
2022-12-31T15:32:20.833Z,4.53
2022-12-31T15:34:47.928Z,2.55
2022-12-31T15:37:35.998Z,3.47
2022-12-31T15:40:25.191Z,2.67
2022-12-31T15:43:20.167Z,3.25
2022-12-31T15:45:48.565Z,2.20
2022-12-31T15:48:39.506Z,1.33
2022-12-31T15:51:24.069Z,2.85
2022-12-31T15:53:55.064Z,2.80
2022-12-31T15:56:36.971Z,2.75
2022-12-31T15:59:11.374Z,2.03
2022-12-31T16:01:42.650Z,2.17
2022-12-31T16:04:29.281Z,1.40
2022-12-31T16:07:03.757Z,2.45
2022-12-31T16:09:34.655Z,2.83
2022-12-31T16:12:30.814Z,8.73
2022-12-31T16:15:00.780Z,5.82
2022-12-31T16:17:31.896Z,3.33
2022-12-31T16:20:01.399Z,3.13
2022-12-31T16:22:40.193Z,3.30
2022-12-31T16:25:32.432Z,2.83
2022-12-31T16:28:03.303Z,2.25
2022-12-31T16:30:36.137Z,2.55
2022-12-31T16:33:07.316Z,10.07
2022-12-31T16:35:37.471Z,2.63
2022-12-31T16:41:07.227Z,2.03
2022-12-31T16:43:40.756Z,2.72
2022-12-31T16:46:27.588Z,4.50
2022-12-31T16:49:01.427Z,3.38
2022-12-31T16:51:31.899Z,3.22
2022-12-31T16:54:01.743Z,3.20
2022-12-31T16:56:42.606Z,3.95
2022-12-31T16:59:40.851Z,4.03
2022-12-31T17:02:35.039Z,2.45
2022-12-31T17:05:02.824Z,1.83
2022-12-31T17:07:33.034Z,2.67
2022-12-31T17:15:52.266Z,5.05
2022-12-31T17:18:26.628Z,2.90
2022-12-31T17:20:55.294Z,2.47
2022-12-31T17:23:31.608Z,1.83
2022-12-31T17:26:28.076Z,4.07
2022-12-31T17:28:57.814Z,4.53
2022-12-31T17:31:40.871Z,2.70
2022-12-31T17:34:13.973Z,3.35
2022-12-31T17:36:57.170Z,2.38
2022-12-31T17:39:24.453Z,10.25
2022-12-31T17:41:56.097Z,9.73
2022-12-31T17:44:28.951Z,9.68
2022-12-31T17:46:56.276Z,8.63
2022-12-31T17:49:30.522Z,5.88
2022-12-31T17:51:58.018Z,5.13
2022-12-31T17:54:25.101Z,7.38
2022-12-31T17:56:53.876Z,4.30
2022-12-31T17:59:29.860Z,2.65
2022-12-31T18:02:05.053Z,3.75
2022-12-31T18:04:32.439Z,3.83
2022-12-31T18:06:59.601Z,4.90
2022-12-31T18:09:26.796Z,7.18
2022-12-31T18:11:56.938Z,3.40
2022-12-31T18:14:28.492Z,2.83
2022-12-31T18:16:55.525Z,2.72
2022-12-31T18:22:16.289Z,2.72
2022-12-31T18:24:44.451Z,3.20
2022-12-31T18:27:17.883Z,3.13
2022-12-31T18:29:47.409Z,4.30
2022-12-31T18:32:28.129Z,3.70
2022-12-31T18:34:55.433Z,4.53
2022-12-31T18:37:22.561Z,4.45
2022-12-31T18:39:49.771Z,5.22
2022-12-31T18:42:19.308Z,6.38
2022-12-31T18:44:46.807Z,5.65
2022-12-31T18:47:19.788Z,5.60
2022-12-31T18:49:48.744Z,5.00
2022-12-31T18:52:20.256Z,4.35
2022-12-31T18:54:48.277Z,3.78
2022-12-31T18:57:16.697Z,3.33
2022-12-31T18:59:43.857Z,3.13
2022-12-31T19:02:20.670Z,3.92
2022-12-31T19:04:48.723Z,4.22
2022-12-31T19:07:16.092Z,2.88
2022-12-31T19:09:46.059Z,4.55
2022-12-31T19:12:15.195Z,5.07
2022-12-31T19:14:42.525Z,6.88
2022-12-31T19:19:35.550Z,4.53
2022-12-31T19:22:03.945Z,6.55
2022-12-31T19:24:30.961Z,4.93
2022-12-31T19:26:58.038Z,7.00
2022-12-31T19:29:28.748Z,6.53
2022-12-31T19:31:56.050Z,5.82
2022-12-31T19:34:23.197Z,6.45
2022-12-31T19:36:50.308Z,6.85
2022-12-31T19:39:20.778Z,7.72
2022-12-31T19:41:58.790Z,10.73
2022-12-31T19:44:26.604Z,7.90
2022-12-31T19:46:53.693Z,8.50
2022-12-31T19:49:24.198Z,10.18
2022-12-31T19:51:51.621Z,9.48
2022-12-31T19:54:18.615Z,9.05
2022-12-31T19:56:45.609Z,10.73
2022-12-31T19:59:12.817Z,11.60
2022-12-31T20:01:40.001Z,12.45
2022-12-31T20:04:07.268Z,26.90
2022-12-31T20:06:34.542Z,17.85
2022-12-31T20:09:03.640Z,21.67
2022-12-31T20:11:30.676Z,25.80
2022-12-31T20:13:58.299Z,20.55
2022-12-31T20:16:27.074Z,27.17
2022-12-31T20:18:54.419Z,32.60
2022-12-31T20:21:24.819Z,27.65
2022-12-31T20:23:54.221Z,25.23
2022-12-31T20:26:23.558Z,24.10
2022-12-31T20:28:51.237Z,23.33
2022-12-31T20:31:24.573Z,17.80
2022-12-31T20:33:54.333Z,17.73
2022-12-31T20:36:22.526Z,15.18
2022-12-31T20:38:49.715Z,16.27
2022-12-31T20:41:22.781Z,19.10
2022-12-31T20:43:50.809Z,10.82
2022-12-31T20:46:24.424Z,10.23
2022-12-31T20:48:57.149Z,9.35
2022-12-31T20:51:26.427Z,12.02
2022-12-31T20:54:14.215Z,11.93
2022-12-31T20:56:42.308Z,14.18
2022-12-31T20:59:10.133Z,19.50
2022-12-31T21:02:11.808Z,21.27
2022-12-31T21:04:25.242Z,19.98
2022-12-31T21:06:52.398Z,22.10
2022-12-31T21:09:19.512Z,26.05
2022-12-31T21:12:05.550Z,22.65
2022-12-31T21:14:32.540Z,23.55
2022-12-31T21:16:59.813Z,22.83
2022-12-31T21:19:26.820Z,17.90
2022-12-31T21:21:53.999Z,20.15
2022-12-31T21:24:24.113Z,25.05
2022-12-31T21:26:57.007Z,24.42
2022-12-31T21:29:23.988Z,18.33
2022-12-31T21:31:51.048Z,16.98
2022-12-31T21:34:18.058Z,14.85
2022-12-31T21:36:45.625Z,14.88
2022-12-31T21:39:12.765Z,13.48
2022-12-31T21:41:51.931Z,14.23
2022-12-31T21:44:21.558Z,11.52
2022-12-31T21:47:34.950Z,14.02
2022-12-31T21:50:04.999Z,13.05
2022-12-31T21:52:34.369Z,11.02
2022-12-31T21:55:23.043Z,9.97
2022-12-31T22:00:57.707Z,11.82
2022-12-31T22:03:24.831Z,12.45
2022-12-31T22:06:09.101Z,9.95
2022-12-31T22:08:37.606Z,12.82
2022-12-31T22:11:05.078Z,10.30
2022-12-31T22:13:33.269Z,9.88
2022-12-31T22:16:05.409Z,10.40
2022-12-31T22:18:38.412Z,12.02
2022-12-31T22:21:20.001Z,11.80
2022-12-31T22:23:53.582Z,13.02
2022-12-31T22:26:24.583Z,11.65
2022-12-31T22:28:52.554Z,52.22
2022-12-31T22:31:24.673Z,42.25
2022-12-31T22:33:52.297Z,32.35
2022-12-31T22:36:24.000Z,41.75
2022-12-31T22:38:57.368Z,36.85
2022-12-31T22:41:25.865Z,31.98
2022-12-31T22:44:03.085Z,26.52
2022-12-31T22:46:32.380Z,31.98
2022-12-31T22:49:02.851Z,28.48
2022-12-31T22:51:55.303Z,29.05
2022-12-31T22:54:19.077Z,31.77
2022-12-31T22:56:46.304Z,45.42
2022-12-31T22:59:13.532Z,46.13
2022-12-31T23:01:40.782Z,46.55
2022-12-31T23:04:08.037Z,40.83
2022-12-31T23:06:43.501Z,88.90
2022-12-31T23:09:30.930Z,119.15
2022-12-31T23:11:58.572Z,141.80
2022-12-31T23:14:44.371Z,185.50
2022-12-31T23:17:37.732Z,221.82
2022-12-31T23:20:27.134Z,211.55
2022-12-31T23:23:07.309Z,174.40
2022-12-31T23:25:43.352Z,167.10
2022-12-31T23:28:17.611Z,161.25
2022-12-31T23:30:45.263Z,145.65
2022-12-31T23:33:19.995Z,135.55
2022-12-31T23:35:47.286Z,117.90
2022-12-31T23:38:16.722Z,109.88
2022-12-31T23:40:44.618Z,108.10
2022-12-31T23:43:21.520Z,105.70
2022-12-31T23:45:50.993Z,98.45
2022-12-31T23:48:18.072Z,93.45
2022-12-31T23:50:50.811Z,140.27
2022-12-31T23:53:19.933Z,127.82
2022-12-31T23:55:48.143Z,128.88
2022-12-31T23:58:15.941Z,115.22
